Time;durP1;ratioP1;P1;durP2;ratioP2;P2;SDS_P1;SDS_P2;PMS_P1;PMS_P2;Temp;Humidity;BMP_temperature;BMP_pressure;BME280_temperature;BME280_humidity;BME280_pressure;Samples;Min_cycle;Max_cycle;Signal;HPM_P1;HPM_P2
2022/12/18 00:01:21;;;;;;;32.53;15.18;;;;;;;;;;2100931;28;20025;-87
2022/12/18 00:02:42;;;;;;;34.78;15.30;;;;;;;;;;2104042;28;20099;-87
2022/12/18 00:04:09;;;;;;;38.97;15.70;;;;;;;;;;2102878;28;20040;-87
2022/12/18 00:05:28;;;;;;;36.72;17.45;;;;;;;;;;2103555;28;20032;-89
2022/12/18 00:06:47;;;;;;;31.98;15.55;;;;;;;;;;2098616;28;20020;-88
2022/12/18 00:08:07;;;;;;;30.48;16.10;;;;;;;;;;2100629;28;20509;-88
2022/12/18 00:09:25;;;;;;;34.97;16.23;;;;;;;;;;2098231;28;20028;-88
2022/12/18 00:10:44;;;;;;;34.03;16.17;;;;;;;;;;2100034;28;20036;-87
2022/12/18 00:12:03;;;;;;;36.13;15.95;;;;;;;;;;2100360;28;20048;-86
2022/12/18 00:13:31;;;;;;;35.92;17.95;;;;;;;;;;2098734;28;20036;-89
2022/12/18 00:14:50;;;;;;;41.13;17.92;;;;;;;;;;2102263;28;20040;-89
2022/12/18 00:16:16;;;;;;;32.63;15.30;;;;;;;;;;2102505;28;20029;-88
2022/12/18 00:17:40;;;;;;;31.85;15.65;;;;;;;;;;2099462;28;20044;-88
2022/12/18 00:18:59;;;;;;;37.10;16.40;;;;;;;;;;2105639;28;20036;-89
2022/12/18 00:20:25;;;;;;;31.90;15.85;;;;;;;;;;2103860;28;20020;-89
2022/12/18 00:21:44;;;;;;;31.35;14.95;;;;;;;;;;2101571;28;20028;-88
2022/12/18 00:23:04;;;;;;;31.88;15.93;;;;;;;;;;2098129;28;20100;-88
2022/12/18 00:24:22;;;;;;;34.17;16.50;;;;;;;;;;2098739;28;20513;-88
2022/12/18 00:25:42;;;;;;;37.42;17.05;;;;;;;;;;2101778;28;20028;-89
2022/12/18 00:27:03;;;;;;;29.63;14.82;;;;;;;;;;2107215;28;20032;-88
2022/12/18 00:28:22;;;;;;;32.92;16.92;;;;;;;;;;2101126;28;20111;-88
2022/12/18 00:29:41;;;;;;;32.85;15.48;;;;;;;;;;2102691;28;20215;-88
2022/12/18 00:31:01;;;;;;;29.38;15.50;;;;;;;;;;2101294;28;20044;-88
2022/12/18 00:32:20;;;;;;;30.45;14.18;;;;;;;;;;2107287;28;20032;-89
2022/12/18 00:33:39;;;;;;;32.80;14.55;;;;;;;;;;2099878;28;20024;-87
2022/12/18 00:34:58;;;;;;;23.42;12.05;;;;;;;;;;2097480;28;20029;-90
2022/12/18 00:36:18;;;;;;;31.42;14.57;;;;;;;;;;2099487;28;20028;-88
2022/12/18 00:37:40;;;;;;;27.13;14.40;;;;;;;;;;2099781;28;20096;-89
2022/12/18 00:38:59;;;;;;;27.75;14.77;;;;;;;;;;2105561;28;20056;-89
2022/12/18 00:40:18;;;;;;;34.90;14.80;;;;;;;;;;2099186;28;20024;-88
2022/12/18 00:43:15;;;;;;;28.52;13.82;;;;;;;;;;2103652;28;20036;-89
2022/12/18 00:44:39;;;;;;;32.67;14.30;;;;;;;;;;2101914;28;20088;-89
2022/12/18 00:45:59;;;;;;;28.40;14.00;;;;;;;;;;2098371;28;20032;-89
2022/12/18 00:47:18;;;;;;;30.25;14.27;;;;;;;;;;2101512;28;20031;-90
2022/12/18 00:48:37;;;;;;;33.20;15.07;;;;;;;;;;2103863;28;20060;-90
2022/12/18 00:49:56;;;;;;;26.23;14.65;;;;;;;;;;2097695;28;20032;-88
2022/12/18 00:51:18;;;;;;;28.73;15.60;;;;;;;;;;2100005;28;20509;-89
2022/12/18 00:52:40;;;;;;;31.33;16.23;;;;;;;;;;2099092;28;20127;-87
2022/12/18 00:53:59;;;;;;;31.07;14.90;;;;;;;;;;2102054;28;20021;-87
2022/12/18 00:55:18;;;;;;;27.95;13.30;;;;;;;;;;2101632;28;20233;-89
2022/12/18 00:56:38;;;;;;;27.33;13.93;;;;;;;;;;2097577;28;20060;-88
2022/12/18 00:57:57;;;;;;;27.52;13.27;;;;;;;;;;2098449;28;20029;-89
2022/12/18 00:59:17;;;;;;;31.60;15.90;;;;;;;;;;2096144;28;20048;-88
2022/12/18 01:00:36;;;;;;;29.95;14.20;;;;;;;;;;2096995;28;20024;-87
2022/12/18 01:01:55;;;;;;;27.13;13.00;;;;;;;;;;2100321;28;20112;-87
2022/12/18 01:03:14;;;;;;;30.95;15.55;;;;;;;;;;2101586;28;20032;-87
2022/12/18 01:04:33;;;;;;;27.77;14.82;;;;;;;;;;2101103;28;20032;-86
2022/12/18 01:05:52;;;;;;;30.70;15.32;;;;;;;;;;2101781;28;20412;-87
2022/12/18 01:07:10;;;;;;;30.20;13.43;;;;;;;;;;2096787;28;20025;-87
2022/12/18 01:08:29;;;;;;;31.65;15.45;;;;;;;;;;2105767;28;20417;-86
2022/12/18 01:09:48;;;;;;;29.27;14.07;;;;;;;;;;2102708;28;20424;-87
2022/12/18 01:11:08;;;;;;;32.53;15.82;;;;;;;;;;2101403;28;20032;-87
2022/12/18 01:12:26;;;;;;;31.10;16.27;;;;;;;;;;2098423;28;20012;-87
2022/12/18 01:13:45;;;;;;;38.70;17.10;;;;;;;;;;2097391;28;20409;-86
2022/12/18 01:15:05;;;;;;;30.90;15.43;;;;;;;;;;2101213;28;20504;-84
2022/12/18 01:16:24;;;;;;;28.98;15.45;;;;;;;;;;2100131;28;20099;-86
2022/12/18 01:17:43;;;;;;;28.02;14.38;;;;;;;;;;2106887;28;20015;-88
2022/12/18 01:19:01;;;;;;;27.60;12.98;;;;;;;;;;2106714;28;20028;-87
2022/12/18 01:20:20;;;;;;;31.38;14.93;;;;;;;;;;2102222;28;20032;-87
2022/12/18 01:21:39;;;;;;;27.25;13.75;;;;;;;;;;2099301;28;20021;-87
2022/12/18 01:22:58;;;;;;;31.77;14.60;;;;;;;;;;2099212;28;20056;-87
2022/12/18 01:24:17;;;;;;;29.52;13.20;;;;;;;;;;2103148;28;20036;-86
2022/12/18 01:25:36;;;;;;;27.23;14.10;;;;;;;;;;2101436;28;20040;-87
2022/12/18 01:26:57;;;;;;;28.02;14.50;;;;;;;;;;2100966;28;20696;-86
2022/12/18 01:28:16;;;;;;;24.83;13.88;;;;;;;;;;2098131;28;20509;-88
2022/12/18 01:29:34;;;;;;;29.75;15.02;;;;;;;;;;2097575;28;20064;-87
2022/12/18 01:30:53;;;;;;;33.67;15.32;;;;;;;;;;2093081;28;20029;-88
2022/12/18 01:32:12;;;;;;;29.45;15.25;;;;;;;;;;2095386;28;20040;-87
2022/12/18 01:33:31;;;;;;;33.25;14.75;;;;;;;;;;2100478;28;20028;-88
2022/12/18 01:34:50;;;;;;;30.67;15.32;;;;;;;;;;2099678;28;20119;-88
2022/12/18 01:36:14;;;;;;;29.77;15.02;;;;;;;;;;2099117;28;20028;-88
2022/12/18 01:37:33;;;;;;;31.00;15.40;;;;;;;;;;2101474;28;20037;-88
2022/12/18 01:38:52;;;;;;;27.20;13.45;;;;;;;;;;2099534;28;20017;-88
2022/12/18 01:40:11;;;;;;;27.52;15.32;;;;;;;;;;2099909;28;20029;-87
2022/12/18 01:42:01;;;;;;;26.80;14.77;;;;;;;;;;2095470;28;20029;-87
2022/12/18 01:43:10;;;;;;;34.20;14.98;;;;;;;;;;2101868;28;20501;-87
2022/12/18 01:44:50;;;;;;;27.88;15.55;;;;;;;;;;2101546;28;20028;-87
2022/12/18 01:46:13;;;;;;;25.83;14.93;;;;;;;;;;2101851;28;20036;-87
2022/12/18 01:47:40;;;;;;;25.17;12.27;;;;;;;;;;2098557;28;20021;-87
2022/12/18 01:49:00;;;;;;;31.10;15.00;;;;;;;;;;2090782;28;20021;-87
2022/12/18 01:50:22;;;;;;;34.40;15.45;;;;;;;;;;2095633;28;20032;-88
2022/12/18 01:51:41;;;;;;;30.30;15.30;;;;;;;;;;2099247;28;20036;-86
2022/12/18 01:53:09;;;;;;;29.33;14.30;;;;;;;;;;2103811;28;20028;-87
2022/12/18 01:54:28;;;;;;;30.70;14.90;;;;;;;;;;2102328;28;20028;-88
2022/12/18 01:55:51;;;;;;;29.63;14.25;;;;;;;;;;2102382;28;20477;-88
2022/12/18 01:57:13;;;;;;;29.45;14.90;;;;;;;;;;2103838;28;20187;-88
2022/12/18 01:58:36;;;;;;;26.48;15.23;;;;;;;;;;2097960;28;20029;-87
2022/12/18 01:59:57;;;;;;;28.73;14.80;;;;;;;;;;2098115;28;20028;-86
2022/12/18 02:01:16;;;;;;;37.95;15.63;;;;;;;;;;2092107;28;20033;-88
2022/12/18 02:02:35;;;;;;;31.88;14.63;;;;;;;;;;2095088;28;20056;-88
2022/12/18 02:03:54;;;;;;;31.58;15.73;;;;;;;;;;2101161;28;20029;-88
2022/12/18 02:05:18;;;;;;;30.85;13.10;;;;;;;;;;2101180;28;20020;-88
2022/12/18 02:06:40;;;;;;;27.77;14.43;;;;;;;;;;2100714;28;20017;-88
2022/12/18 02:08:23;;;;;;;33.10;14.95;;;;;;;;;;2100654;28;20025;-86
2022/12/18 02:09:56;;;;;;;29.02;15.13;;;;;;;;;;2074413;28;20502;-88
2022/12/18 02:11:33;;;;;;;30.45;15.15;;;;;;;;;;2101130;28;20038;-88
2022/12/18 02:12:56;;;;;;;26.20;13.38;;;;;;;;;;2100584;28;20413;-87
2022/12/18 02:14:27;;;;;;;32.85;14.68;;;;;;;;;;2106083;28;20020;-88
2022/12/18 02:15:46;;;;;;;22.60;11.45;;;;;;;;;;2098185;28;20036;-88
2022/12/18 02:17:10;;;;;;;26.63;13.35;;;;;;;;;;2100340;28;20420;-87
2022/12/18 02:18:50;;;;;;;29.92;14.30;;;;;;;;;;2106949;28;20103;-88
2022/12/18 02:20:16;;;;;;;30.08;14.18;;;;;;;;;;2099710;28;20021;-87
2022/12/18 02:21:35;;;;;;;24.98;13.30;;;;;;;;;;2107026;28;20028;-87
2022/12/18 02:22:59;;;;;;;24.50;13.85;;;;;;;;;;2099924;28;20055;-87
2022/12/18 02:24:30;;;;;;;28.60;14.00;;;;;;;;;;2107123;28;20020;-88
2022/12/18 02:26:06;;;;;;;29.13;13.88;;;;;;;;;;2100402;28;20397;-87
2022/12/18 02:27:26;;;;;;;27.83;13.60;;;;;;;;;;2092214;28;20041;-88
2022/12/18 02:28:53;;;;;;;24.90;13.68;;;;;;;;;;2094434;28;20033;-88
2022/12/18 02:30:12;;;;;;;25.73;14.32;;;;;;;;;;2097904;28;20421;-87
2022/12/18 02:31:35;;;;;;;26.55;14.45;;;;;;;;;;2096148;28;20517;-88
2022/12/18 02:32:54;;;;;;;27.77;13.88;;;;;;;;;;2106987;28;20015;-88
2022/12/18 02:34:13;;;;;;;27.73;14.60;;;;;;;;;;2099637;28;20493;-84
2022/12/18 02:35:33;;;;;;;25.30;13.88;;;;;;;;;;2100713;28;20024;-88
2022/12/18 02:36:53;;;;;;;26.77;13.45;;;;;;;;;;2100747;28;20028;-87
2022/12/18 02:38:13;;;;;;;25.77;13.68;;;;;;;;;;2106119;28;20035;-88
2022/12/18 02:39:32;;;;;;;27.30;14.30;;;;;;;;;;2101075;28;20029;-88
2022/12/18 02:40:53;;;;;;;26.35;13.27;;;;;;;;;;2104646;28;20020;-87
2022/12/18 02:42:12;;;;;;;26.60;13.57;;;;;;;;;;2100513;28;20107;-86
2022/12/18 02:43:31;;;;;;;25.50;13.25;;;;;;;;;;2099447;28;20040;-87
2022/12/18 02:44:51;;;;;;;30.50;14.48;;;;;;;;;;2101647;28;20111;-88
2022/12/18 02:46:25;;;;;;;28.10;14.35;;;;;;;;;;2100937;28;20776;-87
2022/12/18 02:47:46;;;;;;;24.33;13.20;;;;;;;;;;2101456;28;20433;-87
2022/12/18 02:49:23;;;;;;;29.63;14.32;;;;;;;;;;2096645;28;20079;-87
2022/12/18 02:50:51;;;;;;;29.27;13.70;;;;;;;;;;2093250;28;20100;-87
2022/12/18 02:52:16;;;;;;;24.40;13.90;;;;;;;;;;2098030;28;20501;-88
2022/12/18 02:53:59;;;;;;;24.65;13.77;;;;;;;;;;2100044;28;20064;-88
2022/12/18 02:55:24;;;;;;;24.27;13.38;;;;;;;;;;2093457;28;20033;-87
2022/12/18 02:56:45;;;;;;;28.23;14.35;;;;;;;;;;2104558;28;20027;-88
2022/12/18 02:58:10;;;;;;;24.05;13.13;;;;;;;;;;2107343;28;20021;-87
2022/12/18 02:59:34;;;;;;;24.95;13.57;;;;;;;;;;2099089;28;20027;-87
2022/12/18 03:01:02;;;;;;;22.63;13.88;;;;;;;;;;2097515;28;20415;-87
2022/12/18 03:02:26;;;;;;;25.85;13.57;;;;;;;;;;2106065;28;20458;-87
2022/12/18 03:04:11;;;;;;;28.80;14.32;;;;;;;;;;2100836;28;20115;-87
2022/12/18 03:05:36;;;;;;;22.27;13.60;;;;;;;;;;2093462;28;20413;-88
2022/12/18 03:06:56;;;;;;;32.30;14.95;;;;;;;;;;2096451;28;20032;-87
2022/12/18 03:08:27;;;;;;;25.45;13.45;;;;;;;;;;2098556;28;20484;-86
2022/12/18 03:09:47;;;;;;;27.55;13.32;;;;;;;;;;2100941;28;20044;-86
2022/12/18 03:11:10;;;;;;;27.77;15.90;;;;;;;;;;2099058;28;20033;-87
2022/12/18 03:12:29;;;;;;;;;;;;;;;;;;2097169;28;20024;-88
2022/12/18 03:13:50;;;;;;;28.25;12.55;;;;;;;;;;2099351;28;19987;-90
2022/12/18 03:15:12;;;;;;;30.30;13.88;;;;;;;;;;2095567;28;20079;-87
2022/12/18 03:16:32;;;;;;;25.63;12.93;;;;;;;;;;2096979;28;20505;-88
2022/12/18 03:17:54;;;;;;;24.30;13.15;;;;;;;;;;2093554;28;20016;-86
2022/12/18 03:19:16;;;;;;;25.17;13.60;;;;;;;;;;2098484;28;20033;-85
2022/12/18 03:20:36;;;;;;;27.45;12.57;;;;;;;;;;2100123;28;20059;-88
2022/12/18 03:21:56;;;;;;;23.27;12.77;;;;;;;;;;2094244;28;20064;-88
2022/12/18 03:23:17;;;;;;;20.15;12.18;;;;;;;;;;2098545;28;20029;-87
2022/12/18 03:24:39;;;;;;;23.40;12.55;;;;;;;;;;2098909;28;20025;-87
2022/12/18 03:26:00;;;;;;;18.85;11.63;;;;;;;;;;2098373;28;20025;-88
2022/12/18 03:27:20;;;;;;;21.35;12.75;;;;;;;;;;2100995;28;20036;-88
2022/12/18 03:28:42;;;;;;;28.52;13.18;;;;;;;;;;2098421;28;20029;-88
2022/12/18 03:30:07;;;;;;;22.27;12.32;;;;;;;;;;2097470;28;20037;-87
2022/12/18 03:31:28;;;;;;;21.50;12.35;;;;;;;;;;2104734;28;20024;-87
2022/12/18 03:32:48;;;;;;;23.38;12.82;;;;;;;;;;2099995;28;20032;-87
2022/12/18 03:34:16;;;;;;;22.73;10.02;;;;;;;;;;2096208;28;20040;-88
2022/12/18 03:35:37;;;;;;;18.85;11.32;;;;;;;;;;2090334;28;20029;-87
2022/12/18 03:36:56;;;;;;;23.08;12.18;;;;;;;;;;2095336;28;20032;-88
2022/12/18 03:38:15;;;;;;;19.60;11.32;;;;;;;;;;2101380;28;20059;-88
2022/12/18 03:39:35;;;;;;;22.85;12.85;;;;;;;;;;2096683;28;20036;-87
2022/12/18 03:41:02;;;;;;;21.38;12.63;;;;;;;;;;2106374;28;20043;-88
2022/12/18 03:42:29;;;;;;;20.42;11.07;;;;;;;;;;2097799;28;20028;-88
2022/12/18 03:43:52;;;;;;;19.25;10.93;;;;;;;;;;2098368;28;20103;-88
2022/12/18 03:45:13;;;;;;;23.05;12.10;;;;;;;;;;2097248;28;20533;-86
2022/12/18 03:46:51;;;;;;;19.88;11.77;;;;;;;;;;2100655;28;20028;-88
2022/12/18 03:48:17;;;;;;;20.38;11.57;;;;;;;;;;2101490;28;20083;-87
2022/12/18 03:49:51;;;;;;;25.98;11.70;;;;;;;;;;2097937;28;20118;-89
2022/12/18 03:51:22;;;;;;;20.40;11.65;;;;;;;;;;2102114;28;20033;-88
2022/12/18 03:53:01;;;;;;;19.25;10.65;;;;;;;;;;2101803;28;20505;-88
2022/12/18 03:54:20;;;;;;;18.95;11.45;;;;;;;;;;2081822;28;20025;-86
2022/12/18 03:55:40;;;;;;;22.38;11.20;;;;;;;;;;2097823;28;20489;-89
2022/12/18 03:57:06;;;;;;;16.45;10.40;;;;;;;;;;2098562;28;20504;-89
2022/12/18 03:58:26;;;;;;;21.55;11.73;;;;;;;;;;2098337;28;20115;-89
2022/12/18 03:59:46;;;;;;;20.67;11.38;;;;;;;;;;2096079;28;20064;-88
2022/12/18 04:01:06;;;;;;;19.83;12.02;;;;;;;;;;2098936;28;20025;-89
2022/12/18 04:02:25;;;;;;;21.30;11.75;;;;;;;;;;2090717;28;20040;-89
2022/12/18 04:03:46;;;;;;;24.15;12.23;;;;;;;;;;2096540;28;20032;-87
2022/12/18 04:05:07;;;;;;;21.15;11.73;;;;;;;;;;2100576;28;20036;-88
2022/12/18 04:06:26;;;;;;;18.15;11.68;;;;;;;;;;2101867;28;20033;-89
2022/12/18 04:07:47;;;;;;;21.30;11.18;;;;;;;;;;2098700;28;20062;-89
2022/12/18 04:09:06;;;;;;;19.98;11.57;;;;;;;;;;2101130;28;20028;-89
2022/12/18 04:10:25;;;;;;;22.20;11.52;;;;;;;;;;2101806;28;20024;-89
2022/12/18 04:11:45;;;;;;;21.42;11.45;;;;;;;;;;2097892;28;20032;-89
2022/12/18 04:13:04;;;;;;;18.75;11.50;;;;;;;;;;2092160;28;20064;-88
2022/12/18 04:14:26;;;;;;;22.05;11.73;;;;;;;;;;2098472;28;20066;-88
2022/12/18 04:15:45;;;;;;;20.20;11.38;;;;;;;;;;2101226;28;20024;-88
2022/12/18 04:17:04;;;;;;;20.13;11.80;;;;;;;;;;2103898;28;20025;-88
2022/12/18 04:18:23;;;;;;;23.13;11.35;;;;;;;;;;2097408;28;20024;-89
2022/12/18 04:19:42;;;;;;;25.02;12.90;;;;;;;;;;2102868;28;20485;-89
2022/12/18 04:21:01;;;;;;;22.17;11.82;;;;;;;;;;2099243;28;20501;-88
2022/12/18 04:22:20;;;;;;;19.90;10.65;;;;;;;;;;2099554;28;20067;-90
2022/12/18 04:23:39;;;;;;;15.55;9.23;;;;;;;;;;2098258;28;20028;-87
2022/12/18 04:24:58;;;;;;;22.13;12.15;;;;;;;;;;2103251;28;20110;-89
2022/12/18 04:26:17;;;;;;;21.15;11.90;;;;;;;;;;2101047;28;20032;-89
2022/12/18 04:27:35;;;;;;;22.40;12.07;;;;;;;;;;2098006;28;20040;-88
2022/12/18 04:28:54;;;;;;;18.50;11.85;;;;;;;;;;2100360;28;20497;-87
2022/12/18 04:30:13;;;;;;;16.05;10.57;;;;;;;;;;2107993;28;20032;-88
2022/12/18 04:31:32;;;;;;;26.92;12.30;;;;;;;;;;2098266;28;20076;-88
2022/12/18 04:32:51;;;;;;;20.70;11.57;;;;;;;;;;2101747;28;20029;-87
2022/12/18 04:34:10;;;;;;;21.05;10.90;;;;;;;;;;2102000;28;20044;-88
2022/12/18 04:35:30;;;;;;;20.38;11.82;;;;;;;;;;2100577;28;20025;-88
2022/12/18 04:36:48;;;;;;;17.55;11.82;;;;;;;;;;2106890;28;20500;-89
2022/12/18 04:38:11;;;;;;;25.05;12.48;;;;;;;;;;2103250;28;20032;-90
2022/12/18 04:39:30;;;;;;;22.00;10.80;;;;;;;;;;2100404;28;20024;-90
2022/12/18 04:40:49;;;;;;;23.40;12.70;;;;;;;;;;2102495;28;20025;-90
2022/12/18 04:42:07;;;;;;;18.58;11.50;;;;;;;;;;2099402;28;20029;-90
2022/12/18 04:43:26;;;;;;;20.50;11.65;;;;;;;;;;2098640;28;20032;-90
2022/12/18 04:44:45;;;;;;;25.90;12.90;;;;;;;;;;2097784;28;20031;-89
2022/12/18 04:46:07;;;;;;;20.20;11.15;;;;;;;;;;2102512;28;20024;-88
2022/12/18 04:47:26;;;;;;;16.73;11.25;;;;;;;;;;2100234;28;20115;-89
2022/12/18 04:48:45;;;;;;;17.75;10.98;;;;;;;;;;2091700;28;20056;-89
2022/12/18 04:50:04;;;;;;;21.23;10.77;;;;;;;;;;2094535;28;20029;-87
2022/12/18 04:51:23;;;;;;;18.75;11.30;;;;;;;;;;2103911;28;20032;-89
2022/12/18 04:52:42;;;;;;;21.30;10.98;;;;;;;;;;2101427;28;20020;-89
2022/12/18 04:54:01;;;;;;;17.90;10.63;;;;;;;;;;2101555;28;20029;-87
2022/12/18 04:55:21;;;;;;;19.88;10.75;;;;;;;;;;2098347;28;20016;-89
2022/12/18 04:56:40;;;;;;;19.13;10.70;;;;;;;;;;2097529;28;20111;-88
2022/12/18 04:57:59;;;;;;;17.85;10.38;;;;;;;;;;2097474;28;20444;-89
2022/12/18 04:59:17;;;;;;;20.70;10.35;;;;;;;;;;2098475;28;20016;-88
2022/12/18 05:00:36;;;;;;;21.08;10.65;;;;;;;;;;2097563;28;20036;-86
2022/12/18 05:01:55;;;;;;;19.10;11.23;;;;;;;;;;2099111;28;20025;-88
2022/12/18 05:03:14;;;;;;;20.58;11.40;;;;;;;;;;2095755;28;20033;-87
2022/12/18 05:04:33;;;;;;;18.45;10.40;;;;;;;;;;2098957;28;20032;-88
2022/12/18 05:05:52;;;;;;;18.73;10.25;;;;;;;;;;2101307;28;20025;-87
2022/12/18 05:07:11;;;;;;;17.40;10.45;;;;;;;;;;2100063;28;20029;-87
2022/12/18 05:08:30;;;;;;;21.27;11.50;;;;;;;;;;2097999;28;20029;-88
2022/12/18 05:09:49;;;;;;;16.55;9.98;;;;;;;;;;2107707;28;20028;-89
2022/12/18 05:11:09;;;;;;;17.23;10.80;;;;;;;;;;2102282;28;20151;-89
2022/12/18 05:12:28;;;;;;;20.38;11.07;;;;;;;;;;2099172;28;20035;-87
2022/12/18 05:13:48;;;;;;;17.17;10.30;;;;;;;;;;2097171;28;20033;-87
2022/12/18 05:15:07;;;;;;;15.25;10.30;;;;;;;;;;2098055;28;20024;-88
2022/12/18 05:16:26;;;;;;;17.75;9.98;;;;;;;;;;2100294;28;20020;-88
2022/12/18 05:17:45;;;;;;;19.27;11.27;;;;;;;;;;2101291;28;20092;-89
2022/12/18 05:19:05;;;;;;;18.65;9.98;;;;;;;;;;2096384;28;20032;-87
2022/12/18 05:20:24;;;;;;;17.02;10.52;;;;;;;;;;2098044;28;20139;-86
2022/12/18 05:21:43;;;;;;;19.08;12.00;;;;;;;;;;2092900;28;20032;-88
2022/12/18 05:23:02;;;;;;;21.02;10.40;;;;;;;;;;2094679;28;20123;-88
2022/12/18 05:24:21;;;;;;;18.90;10.93;;;;;;;;;;2099467;28;20020;-86
2022/12/18 05:25:39;;;;;;;20.67;10.73;;;;;;;;;;2098363;28;20044;-88
2022/12/18 05:26:58;;;;;;;15.15;9.77;;;;;;;;;;2104827;28;20028;-87
2022/12/18 05:28:17;;;;;;;19.85;11.00;;;;;;;;;;2092940;28;20037;-87
2022/12/18 05:29:36;;;;;;;21.52;10.73;;;;;;;;;;2094613;28;20516;-88
2022/12/18 05:30:56;;;;;;;19.95;10.43;;;;;;;;;;2095912;28;20071;-88
2022/12/18 05:32:15;;;;;;;17.63;10.63;;;;;;;;;;2098404;28;20037;-87
2022/12/18 05:33:34;;;;;;;22.92;10.63;;;;;;;;;;2097928;28;21028;-88
2022/12/18 05:34:53;;;;;;;18.55;11.00;;;;;;;;;;2097855;28;20032;-87
2022/12/18 05:36:12;;;;;;;17.88;9.98;;;;;;;;;;2102162;28;20024;-87
2022/12/18 05:37:32;;;;;;;13.40;9.73;;;;;;;;;;2098592;28;20021;-89
2022/12/18 05:38:51;;;;;;;21.38;10.65;;;;;;;;;;2096884;28;20024;-89
2022/12/18 05:40:11;;;;;;;16.90;10.23;;;;;;;;;;2100193;28;20025;-88
2022/12/18 05:41:30;;;;;;;18.60;10.45;;;;;;;;;;2099524;28;20025;-87
2022/12/18 05:42:49;;;;;;;20.55;11.02;;;;;;;;;;2102161;28;20052;-89
2022/12/18 05:44:07;;;;;;;17.35;10.13;;;;;;;;;;2094921;28;20025;-89
2022/12/18 05:45:27;;;;;;;19.75;10.98;;;;;;;;;;2095717;28;20033;-88
2022/12/18 05:46:46;;;;;;;15.43;10.15;;;;;;;;;;2102392;28;20024;-88
2022/12/18 05:48:05;;;;;;;19.75;10.57;;;;;;;;;;2098801;28;20032;-88
2022/12/18 05:49:26;;;;;;;17.45;10.52;;;;;;;;;;2100886;28;20028;-89
2022/12/18 05:50:46;;;;;;;18.45;10.48;;;;;;;;;;2097556;28;20060;-88
2022/12/18 05:52:05;;;;;;;17.52;10.38;;;;;;;;;;2097483;28;20040;-89
2022/12/18 05:53:24;;;;;;;18.58;10.07;;;;;;;;;;2099907;28;20054;-87
2022/12/18 05:54:43;;;;;;;15.93;10.05;;;;;;;;;;2101739;28;20024;-89
2022/12/18 05:56:04;;;;;;;20.27;10.77;;;;;;;;;;2102089;28;20052;-88
2022/12/18 05:57:23;;;;;;;18.40;10.65;;;;;;;;;;2108684;28;20028;-86
2022/12/18 05:58:42;;;;;;;20.70;11.27;;;;;;;;;;2102045;28;20505;-90
2022/12/18 06:00:01;;;;;;;16.50;10.35;;;;;;;;;;2101819;28;20028;-88
2022/12/18 06:01:24;;;;;;;20.45;10.95;;;;;;;;;;2102278;28;20020;-88
2022/12/18 06:02:46;;;;;;;13.70;8.73;;;;;;;;;;2097778;28;20029;-88
2022/12/18 06:04:05;;;;;;;15.32;9.55;;;;;;;;;;2105065;28;20028;-87
2022/12/18 06:05:24;;;;;;;14.57;8.52;;;;;;;;;;2098391;28;20074;-87
2022/12/18 06:06:43;;;;;;;14.05;8.98;;;;;;;;;;2101843;28;20028;-88
2022/12/18 06:08:03;;;;;;;16.02;8.80;;;;;;;;;;2097986;28;20024;-88
2022/12/18 06:09:21;;;;;;;15.73;9.82;;;;;;;;;;2099536;28;20029;-88
2022/12/18 06:10:40;;;;;;;19.77;10.10;;;;;;;;;;2100427;28;20028;-84
2022/12/18 06:11:59;;;;;;;19.13;11.57;;;;;;;;;;2097574;28;20028;-84
2022/12/18 06:13:19;;;;;;;18.52;8.93;;;;;;;;;;2099589;28;20056;-83
2022/12/18 06:14:38;;;;;;;21.80;10.38;;;;;;;;;;2095274;28;20028;-83
2022/12/18 06:15:57;;;;;;;15.05;8.88;;;;;;;;;;2097498;28;20024;-82
2022/12/18 06:17:15;;;;;;;21.05;10.20;;;;;;;;;;2101901;28;20500;-84
2022/12/18 06:18:34;;;;;;;18.60;9.23;;;;;;;;;;2099117;28;20049;-83
2022/12/18 06:19:53;;;;;;;14.80;9.23;;;;;;;;;;2095441;28;20068;-83
2022/12/18 06:21:12;;;;;;;16.60;9.95;;;;;;;;;;2097397;28;20028;-83
2022/12/18 06:22:31;;;;;;;14.27;8.48;;;;;;;;;;2099718;28;20032;-85
2022/12/18 06:23:51;;;;;;;18.00;9.77;;;;;;;;;;2101792;28;20024;-85
2022/12/18 06:25:13;;;;;;;16.58;9.05;;;;;;;;;;2098075;28;20494;-86
2022/12/18 06:26:32;;;;;;;15.23;9.38;;;;;;;;;;2096067;28;20025;-86
2022/12/18 06:27:51;;;;;;;16.33;9.55;;;;;;;;;;2098251;28;20024;-85
2022/12/18 06:29:10;;;;;;;19.77;10.30;;;;;;;;;;2097506;28;20040;-84
2022/12/18 06:30:28;;;;;;;16.05;10.00;;;;;;;;;;2102517;28;20551;-83
2022/12/18 06:31:47;;;;;;;16.50;9.13;;;;;;;;;;2104364;28;20027;-83
2022/12/18 06:33:06;;;;;;;14.40;9.32;;;;;;;;;;2099038;28;20024;-82
2022/12/18 06:34:25;;;;;;;16.35;9.57;;;;;;;;;;2097753;28;20436;-84
2022/12/18 06:35:44;;;;;;;15.65;9.45;;;;;;;;;;2097829;28;20028;-84
2022/12/18 06:37:03;;;;;;;16.88;8.95;;;;;;;;;;2100058;28;20029;-85
2022/12/18 06:38:22;;;;;;;16.40;9.75;;;;;;;;;;2101337;28;20024;-84
2022/12/18 06:39:41;;;;;;;12.55;9.38;;;;;;;;;;2097529;28;20024;-85
2022/12/18 06:41:01;;;;;;;15.85;9.13;;;;;;;;;;2098113;28;20024;-83
2022/12/18 06:42:19;;;;;;;17.42;9.88;;;;;;;;;;2101591;28;20040;-86
2022/12/18 06:43:38;;;;;;;17.20;8.60;;;;;;;;;;2101454;28;20025;-85
2022/12/18 06:44:57;;;;;;;15.60;9.50;;;;;;;;;;2097112;28;20045;-85
2022/12/18 06:46:16;;;;;;;15.27;9.45;;;;;;;;;;2097429;28;20024;-85
2022/12/18 06:47:35;;;;;;;16.60;10.02;;;;;;;;;;2096962;28;20044;-82
2022/12/18 06:48:55;;;;;;;16.50;9.77;;;;;;;;;;2100913;28;20054;-83
2022/12/18 06:50:14;;;;;;;13.60;8.30;;;;;;;;;;2100077;28;20517;-82
2022/12/18 06:51:32;;;;;;;16.48;9.25;;;;;;;;;;2100883;28;20048;-82
2022/12/18 06:52:53;;;;;;;14.07;8.88;;;;;;;;;;2100858;28;20024;-82
2022/12/18 06:54:14;;;;;;;15.18;10.13;;;;;;;;;;2099024;28;20032;-85
2022/12/18 06:55:33;;;;;;;15.93;9.05;;;;;;;;;;2102740;28;20036;-86
2022/12/18 06:56:52;;;;;;;12.93;8.43;;;;;;;;;;2098326;28;20021;-85
2022/12/18 06:58:11;;;;;;;17.20;9.27;;;;;;;;;;2099216;28;20056;-87
2022/12/18 06:59:30;;;;;;;13.65;8.40;;;;;;;;;;2097272;28;20056;-86
2022/12/18 07:00:49;;;;;;;15.32;9.10;;;;;;;;;;2099470;28;20028;-85
2022/12/18 07:02:10;;;;;;;19.98;9.30;;;;;;;;;;2098247;28;20111;-85
2022/12/18 07:03:30;;;;;;;13.63;8.32;;;;;;;;;;2097274;28;20115;-83
2022/12/18 07:04:49;;;;;;;12.75;8.57;;;;;;;;;;2101216;28;20028;-82
2022/12/18 07:06:15;;;;;;;15.00;8.85;;;;;;;;;;2096116;28;20939;-86
2022/12/18 07:07:34;;;;;;;17.20;9.55;;;;;;;;;;2099210;28;20108;-86
2022/12/18 07:08:53;;;;;;;19.33;10.93;;;;;;;;;;2097453;28;20024;-86
2022/12/18 07:10:12;;;;;;;14.65;9.68;;;;;;;;;;2100069;28;20020;-83
2022/12/18 07:11:32;;;;;;;16.15;9.50;;;;;;;;;;2097387;28;20497;-84
2022/12/18 07:12:51;;;;;;;16.60;10.10;;;;;;;;;;2098985;28;20024;-83
2022/12/18 07:14:10;;;;;;;14.52;10.00;;;;;;;;;;2098231;28;20028;-84
2022/12/18 07:15:29;;;;;;;17.60;10.07;;;;;;;;;;2103700;28;20028;-83
2022/12/18 07:16:48;;;;;;;18.02;10.23;;;;;;;;;;2099377;28;20021;-84
2022/12/18 07:18:07;;;;;;;17.85;10.50;;;;;;;;;;2102241;28;20028;-82
2022/12/18 07:19:26;;;;;;;16.27;9.82;;;;;;;;;;2100740;28;20032;-83
2022/12/18 07:20:44;;;;;;;18.85;10.75;;;;;;;;;;2097226;28;20131;-83
2022/12/18 07:22:03;;;;;;;17.35;10.27;;;;;;;;;;2099824;28;20599;-83
2022/12/18 07:23:22;;;;;;;14.82;9.57;;;;;;;;;;2099717;28;20057;-82
2022/12/18 07:24:41;;;;;;;19.23;10.02;;;;;;;;;;2097063;28;20032;-82
2022/12/18 07:26:02;;;;;;;18.77;11.05;;;;;;;;;;2099079;28;20036;-84
2022/12/18 07:27:27;;;;;;;18.48;10.45;;;;;;;;;;2105032;28;20451;-84
2022/12/18 07:28:46;;;;;;;21.45;10.43;;;;;;;;;;2100413;28;20464;-86
2022/12/18 07:30:21;;;;;;;16.63;10.88;;;;;;;;;;2098222;28;20498;-85
2022/12/18 07:31:40;;;;;;;16.95;11.02;;;;;;;;;;2099038;28;20037;-81
2022/12/18 07:33:00;;;;;;;16.83;10.63;;;;;;;;;;2100471;28;20020;-82
2022/12/18 07:34:19;;;;;;;19.40;10.25;;;;;;;;;;2101523;28;20049;-82
2022/12/18 07:35:38;;;;;;;19.27;10.75;;;;;;;;;;2102888;28;20016;-84
2022/12/18 07:36:57;;;;;;;19.50;10.55;;;;;;;;;;2097215;28;20100;-82
2022/12/18 07:38:16;;;;;;;19.90;10.57;;;;;;;;;;2101398;28;20025;-84
2022/12/18 07:39:35;;;;;;;17.98;10.05;;;;;;;;;;2103444;28;20156;-84
2022/12/18 07:40:54;;;;;;;20.15;9.43;;;;;;;;;;2101066;28;20024;-88
2022/12/18 07:42:31;;;;;;;19.00;11.52;;;;;;;;;;2099050;28;20462;-84
2022/12/18 07:43:50;;;;;;;16.20;9.98;;;;;;;;;;2100794;28;20052;-81
2022/12/18 07:45:09;;;;;;;19.58;9.98;;;;;;;;;;2095583;28;21508;-82
2022/12/18 07:46:28;;;;;;;17.60;11.27;;;;;;;;;;2097757;28;20603;-81
2022/12/18 07:47:48;;;;;;;20.40;10.98;;;;;;;;;;2101325;28;20032;-82
2022/12/18 07:49:07;;;;;;;16.67;10.68;;;;;;;;;;2101699;28;20036;-81
2022/12/18 07:50:26;;;;;;;20.02;10.25;;;;;;;;;;2092783;28;20032;-84
2022/12/18 07:51:48;;;;;;;20.88;10.57;;;;;;;;;;2096650;28;20439;-80
2022/12/18 07:53:07;;;;;;;23.67;10.52;;;;;;;;;;2098459;28;20032;-80
2022/12/18 07:54:26;;;;;;;19.25;10.85;;;;;;;;;;2102109;28;20413;-82